Time;durP1;ratioP1;P1;durP2;ratioP2;P2;SDS_P1;SDS_P2;PMS_P1;PMS_P2;Temp;Humidity;BMP_temperature;BMP_pressure;BME280_temperature;BME280_humidity;BME280_pressure;Samples;Min_cycle;Max_cycle;Signal;HPM_P1;HPM_P2
2021/10/21 00:00:47;;;;;;;4.30;3.30;;;;;;;12.64;100.00;93910.50;5022484;28;20037;-62
2021/10/21 00:03:12;;;;;;;4.35;3.25;;;;;;;12.66;100.00;93911.78;5022987;28;20395;-62
2021/10/21 00:05:43;;;;;;;3.90;2.80;;;;;;;12.63;100.00;93903.53;5024269;28;20037;-61
2021/10/21 00:08:11;;;;;;;4.03;3.10;;;;;;;12.50;100.00;93915.16;5030209;28;20025;-59
2021/10/21 00:10:37;;;;;;;4.07;3.05;;;;;;;12.45;100.00;93926.78;5023226;28;20080;-57
2021/10/21 00:13:03;;;;;;;4.85;3.50;;;;;;;12.48;100.00;93924.31;5031253;28;20061;-62
2021/10/21 00:15:32;;;;;;;4.13;3.22;;;;;;;12.54;100.00;93922.28;5023442;28;20034;-62
2021/10/21 00:17:57;;;;;;;3.90;3.40;;;;;;;12.65;100.00;93901.34;5026156;28;20056;-62
2021/10/21 00:20:23;;;;;;;7.10;3.25;;;;;;;12.69;100.00;93889.66;5013962;28;20395;-62
2021/10/21 00:22:57;;;;;;;5.25;3.33;;;;;;;12.67;100.00;93894.56;5030033;28;20555;-62
2021/10/21 00:25:26;;;;;;;5.88;3.10;;;;;;;12.68;100.00;93885.38;5031013;28;20025;-62
2021/10/21 00:27:51;;;;;;;5.07;3.70;;;;;;;12.72;100.00;93878.31;5030674;28;20492;-62
2021/10/21 00:30:17;;;;;;;5.00;3.25;;;;;;;12.73;100.00;93869.16;5012969;28;20116;-62
2021/10/21 00:32:45;;;;;;;4.20;3.20;;;;;;;12.78;100.00;93865.53;5031089;28;20100;-57
2021/10/21 00:35:11;;;;;;;4.53;3.25;;;;;;;12.83;100.00;93864.63;5011452;28;20055;-61
2021/10/21 00:37:36;;;;;;;5.30;3.45;;;;;;;12.86;100.00;93847.88;5008234;28;20476;-59
2021/10/21 00:40:03;;;;;;;7.30;4.43;;;;;;;12.92;100.00;93868.16;5013081;28;20026;-56
2021/10/21 00:42:28;;;;;;;4.75;2.92;;;;;;;12.99;100.00;93863.91;5022179;28;20034;-61
2021/10/21 00:44:54;;;;;;;4.53;3.15;;;;;;;13.12;100.00;93851.47;5011816;28;20479;-59
2021/10/21 00:47:23;;;;;;;3.90;3.13;;;;;;;13.18;100.00;93844.06;5004099;28;20037;-61
2021/10/21 00:49:48;;;;;;;3.25;2.95;;;;;;;13.25;100.00;93831.81;5009469;28;20072;-59
2021/10/21 00:52:14;;;;;;;4.18;3.08;;;;;;;13.32;100.00;93802.53;5005978;28;20033;-58
2021/10/21 00:54:46;;;;;;;5.43;3.28;;;;;;;13.38;100.00;93797.03;5013225;28;20029;-59
2021/10/21 00:57:13;;;;;;;3.42;2.67;;;;;;;13.46;100.00;93774.72;5022771;28;20030;-60
2021/10/21 00:59:40;;;;;;;7.18;3.40;;;;;;;13.52;100.00;93778.84;5022931;28;20563;-60
2021/10/21 01:02:06;;;;;;;5.13;2.72;;;;;;;13.60;100.00;93756.56;5002861;28;20033;-58
2021/10/21 01:04:31;;;;;;;4.13;2.78;;;;;;;13.63;100.00;93735.19;5030812;28;20571;-62
2021/10/21 01:06:57;;;;;;;3.92;2.50;;;;;;;13.66;100.00;93722.19;5009358;28;20083;-61
2021/10/21 01:09:22;;;;;;;4.60;2.72;;;;;;;13.70;100.00;93737.41;5012862;28;20033;-62
2021/10/21 01:11:50;;;;;;;4.05;3.10;;;;;;;13.74;100.00;93734.88;5029276;28;20107;-61
2021/10/21 01:14:16;;;;;;;3.75;2.90;;;;;;;13.82;100.00;93734.88;5013035;28;20432;-60
2021/10/21 01:16:44;;;;;;;4.22;3.00;;;;;;;13.88;100.00;93765.88;5030327;28;20103;-62
2021/10/21 01:19:20;;;;;;;6.20;3.20;;;;;;;13.94;100.00;93769.22;5006199;28;20034;-61
2021/10/21 01:21:49;;;;;;;4.43;2.58;;;;;;;14.00;100.00;93753.69;5011608;28;20029;-61
2021/10/21 01:24:15;;;;;;;3.00;2.65;;;;;;;14.01;100.00;93736.44;5030465;28;20029;-61
2021/10/21 01:26:48;;;;;;;5.10;2.35;;;;;;;14.01;100.00;93749.91;5018698;28;20022;-61
2021/10/21 01:29:18;;;;;;;3.72;2.92;;;;;;;14.06;100.00;93760.50;5030845;28;20448;-61
2021/10/21 01:31:46;;;;;;;3.85;2.50;;;;;;;14.04;100.00;93758.13;5013182;28;20361;-58
2021/10/21 01:34:18;;;;;;;3.92;2.90;;;;;;;14.07;100.00;93767.47;5029053;28;20021;-60
2021/10/21 01:36:57;;;;;;;6.05;2.60;;;;;;;14.04;100.00;93773.50;4996116;28;20045;-59
2021/10/21 01:39:22;;;;;;;4.22;2.78;;;;;;;13.93;100.00;93764.94;5025818;28;20115;-62
2021/10/21 01:41:48;;;;;;;4.80;2.80;;;;;;;13.78;100.00;93787.72;5030062;28;20444;-61
2021/10/21 01:44:13;;;;;;;3.17;2.75;;;;;;;13.62;100.00;93808.94;5020739;28;20057;-62
2021/10/21 01:46:39;;;;;;;4.00;2.83;;;;;;;13.50;100.00;93797.22;5033648;28;20025;-62
2021/10/21 01:49:07;;;;;;;3.63;2.60;;;;;;;13.46;100.00;93774.72;5015062;28;20109;-62
2021/10/21 01:51:42;;;;;;;3.20;2.42;;;;;;;13.43;100.00;93818.38;5032547;28;20032;-60
2021/10/21 01:54:10;;;;;;;5.32;2.63;;;;;;;13.40;100.00;93867.44;5025806;28;20388;-60
2021/10/21 01:56:39;;;;;;;2.80;2.50;;;;;;;13.37;100.00;93868.06;5008290;28;20034;-59
2021/10/21 01:59:04;;;;;;;6.13;2.92;;;;;;;13.42;100.00;93857.94;5021184;28;20101;-59
2021/10/21 02:01:29;;;;;;;3.38;2.55;;;;;;;13.47;100.00;93838.97;5003571;28;20108;-60
2021/10/21 02:03:58;;;;;;;3.83;2.95;;;;;;;13.44;100.00;93847.66;5025149;28;20068;-60
2021/10/21 02:06:38;;;;;;;5.47;2.97;;;;;;;13.40;100.00;93832.47;4998827;28;20040;-61
2021/10/21 02:09:07;;;;;;;4.57;3.22;;;;;;;13.30;100.00;93882.75;5025574;28;20036;-61
2021/10/21 02:11:38;;;;;;;4.75;3.10;;;;;;;13.14;100.00;93916.50;5012015;28;20435;-63
2021/10/21 02:14:12;;;;;;;5.80;2.90;;;;;;;12.96;100.00;93950.53;5033110;28;20033;-63
2021/10/21 02:16:37;;;;;;;3.92;3.03;;;;;;;12.91;100.00;93992.88;5023932;28;20025;-62
2021/10/21 02:19:03;;;;;;;5.35;2.80;;;;;;;12.82;100.00;94030.44;5029667;28;20048;-62
2021/10/21 02:21:28;;;;;;;8.95;3.15;;;;;;;12.76;100.00;94043.19;5015187;28;20117;-62
2021/10/21 02:23:53;;;;;;;4.60;3.55;;;;;;;12.66;100.00;94046.09;5015294;28;20057;-62
2021/10/21 02:26:29;;;;;;;4.88;3.13;;;;;;;12.57;100.00;94068.59;5015408;28;20017;-62
2021/10/21 02:28:58;;;;;;;6.22;2.85;;;;;;;12.47;100.00;94109.91;5033001;28;20108;-61
2021/10/21 02:31:42;;;;;;;6.13;2.65;;;;;;;12.33;100.00;94154.78;5032980;28;20400;-58
2021/10/21 02:34:07;;;;;;;7.78;3.22;;;;;;;12.22;100.00;94180.22;5032508;28;20035;-62
2021/10/21 02:36:41;;;;;;;5.20;3.38;;;;;;;12.15;100.00;94208.25;5033055;28;20395;-62
2021/10/21 02:39:12;;;;;;;5.30;3.10;;;;;;;12.11;100.00;94211.81;5013695;28;20080;-61
2021/10/21 02:41:41;;;;;;;5.20;3.33;;;;;;;12.04;100.00;94220.25;5027513;28;20060;-62
2021/10/21 02:44:06;;;;;;;4.70;3.28;;;;;;;12.03;100.00;94226.72;4996528;28;20044;-62
2021/10/21 02:46:40;;;;;;;3.80;3.40;;;;;;;12.01;100.00;94244.19;5008241;28;20026;-62
2021/10/21 02:49:06;;;;;;;3.03;2.72;;;;;;;12.02;100.00;94276.13;5027745;28;20030;-60
2021/10/21 02:51:41;;;;;;;3.85;3.10;;;;;;;12.00;100.00;94270.25;5022145;28;20361;-60
2021/10/21 02:54:12;;;;;;;4.50;3.22;;;;;;;11.96;100.00;94274.63;5024414;28;20025;-62
2021/10/21 02:56:37;;;;;;;4.93;2.92;;;;;;;11.96;100.00;94271.13;5024312;28;20439;-61
2021/10/21 02:59:12;;;;;;;4.22;3.28;;;;;;;11.93;100.00;94259.06;5012066;28;20041;-61
2021/10/21 03:01:40;;;;;;;3.70;2.85;;;;;;;11.92;100.00;94260.16;5026100;28;20033;-59
2021/10/21 03:04:08;;;;;;;6.13;3.42;;;;;;;11.91;100.00;94280.03;5010902;28;20079;-61
2021/10/21 03:06:34;;;;;;;5.32;3.40;;;;;;;11.92;100.00;94283.53;5020244;28;20392;-60
2021/10/21 03:08:59;;;;;;;4.47;3.15;;;;;;;11.94;100.00;94305.50;5013424;28;20029;-60
2021/10/21 03:11:31;;;;;;;7.25;3.40;;;;;;;11.97;100.00;94316.47;5003614;28;20041;-61
2021/10/21 03:13:59;;;;;;;5.10;2.92;;;;;;;12.01;100.00;94301.34;5022056;28;20039;-58
2021/10/21 03:16:29;;;;;;;4.93;2.92;;;;;;;12.09;100.00;94313.31;5007258;28;20099;-59
2021/10/21 03:18:55;;;;;;;4.75;3.17;;;;;;;12.14;100.00;94299.81;5035452;23;20132;-59
2021/10/21 03:21:26;;;;;;;7.57;3.35;;;;;;;12.21;100.00;94313.66;5009170;28;20630;-60
2021/10/21 03:23:55;;;;;;;5.22;3.65;;;;;;;12.21;100.00;94315.56;5012872;28;20028;-60
2021/10/21 03:26:24;;;;;;;4.45;3.15;;;;;;;12.17;100.00;94316.16;5030236;28;20026;-60
2021/10/21 03:28:50;;;;;;;3.60;3.10;;;;;;;12.14;100.00;94316.72;5021585;28;20027;-60
2021/10/21 03:31:16;;;;;;;4.88;2.80;;;;;;;12.14;100.00;94318.59;5000519;28;20388;-60
2021/10/21 03:33:41;;;;;;;3.30;3.00;;;;;;;12.15;100.00;94331.72;5016784;28;20079;-60
2021/10/21 03:36:10;;;;;;;3.90;3.20;;;;;;;12.16;100.00;94337.91;4990903;28;20026;-60
2021/10/21 03:38:35;;;;;;;4.75;3.15;;;;;;;12.19;100.00;94346.19;5017617;28;20136;-60
2021/10/21 03:41:05;;;;;;;3.97;3.05;;;;;;;12.20;100.00;94341.59;5006943;28;20108;-59
2021/10/21 03:43:30;;;;;;;4.15;2.97;;;;;;;12.22;100.00;94354.72;5018048;28;20037;-60
2021/10/21 03:45:56;;;;;;;3.25;2.88;;;;;;;12.24;100.00;94337.22;5007089;28;20033;-59
2021/10/21 03:48:33;;;;;;;3.90;3.13;;;;;;;12.30;100.00;94359.44;5005383;28;20037;-59
2021/10/21 03:51:05;;;;;;;5.90;2.75;;;;;;;12.36;100.00;94348.31;5005857;28;20029;-59
2021/10/21 03:53:33;;;;;;;2.35;2.15;;;;;;;12.50;100.00;94345.69;5022752;28;20036;-59
2021/10/21 03:56:02;;;;;;;3.00;2.20;;;;;;;12.64;100.00;94357.25;5009886;28;20096;-59
2021/10/21 03:58:27;;;;;;;2.22;1.90;;;;;;;12.53;100.00;94358.53;5022992;28;20442;-57
2021/10/21 04:01:08;;;;;;;2.95;1.40;;;;;;;12.47;100.00;94365.06;5013330;28;20053;-57
2021/10/21 04:03:33;;;;;;;2.13;1.05;;;;;;;12.38;100.00;94346.16;5013645;28;20076;-59
2021/10/21 04:06:14;;;;;;;2.88;0.80;;;;;;;12.24;100.00;94331.88;5030917;28;20029;-59
2021/10/21 04:08:46;;;;;;;1.73;0.80;;;;;;;12.15;100.00;94321.00;5031650;28;20032;-59
2021/10/21 04:11:11;;;;;;;2.83;0.80;;;;;;;12.18;100.00;94349.16;5031351;28;20018;-60
2021/10/21 04:13:36;;;;;;;3.30;1.13;;;;;;;12.10;100.00;94349.81;5013117;28;20029;-58
2021/10/21 04:16:08;;;;;;;3.53;1.02;;;;;;;11.91;100.00;94363.22;5031640;28;20025;-59
2021/10/21 04:18:33;;;;;;;2.05;0.82;;;;;;;11.90;100.00;94365.13;5013449;28;20049;-59
2021/10/21 04:21:01;;;;;;;1.08;0.98;;;;;;;11.80;100.00;94378.69;5018102;28;20030;-57
2021/10/21 04:23:27;;;;;;;1.35;0.90;;;;;;;11.69;100.00;94373.72;5001524;28;20112;-57
2021/10/21 04:25:52;;;;;;;1.80;0.80;;;;;;;11.58;100.00;94373.84;5012713;28;20022;-54
2021/10/21 04:28:17;;;;;;;1.95;1.00;;;;;;;11.60;100.00;94342.16;5016404;28;20997;-59
2021/10/21 04:30:43;;;;;;;3.28;0.90;;;;;;;11.58;100.00;94397.97;5009557;28;20021;-60
2021/10/21 04:33:08;;;;;;;1.67;0.98;;;;;;;11.58;100.00;94381.09;5010330;28;20021;-60
2021/10/21 04:35:34;;;;;;;1.58;0.90;;;;;;;11.52;100.00;94377.69;5017305;28;20033;-59
2021/10/21 04:37:59;;;;;;;0.90;0.80;;;;;;;11.48;100.00;94391.94;5006987;28;20052;-60
2021/10/21 04:40:24;;;;;;;1.10;0.60;;;;;;;11.41;100.00;94405.72;5009477;28;20044;-60
2021/10/21 04:42:50;;;;;;;1.85;0.60;;;;;;;11.35;100.00;94406.06;4980409;28;20591;-59
2021/10/21 04:45:15;;;;;;;1.65;0.85;;;;;;;11.27;100.00;94400.22;5031540;28;20017;-60
2021/10/21 04:47:41;;;;;;;1.73;0.85;;;;;;;11.22;100.00;94402.97;5030152;28;20017;-59
2021/10/21 04:50:06;;;;;;;1.95;0.77;;;;;;;11.15;100.00;94399.81;5031015;28;20053;-59
2021/10/21 04:52:35;;;;;;;1.52;0.70;;;;;;;11.12;100.00;94405.75;5011872;28;20037;-56
2021/10/21 04:55:06;;;;;;;1.20;0.75;;;;;;;11.20;100.00;94378.34;5018189;28;20476;-58
2021/10/21 04:57:34;;;;;;;1.23;0.77;;;;;;;11.21;100.00;94381.81;5009792;28;20107;-59
2021/10/21 05:00:06;;;;;;;1.85;0.70;;;;;;;11.15;100.00;94386.44;4987389;28;20038;-57
2021/10/21 05:02:31;;;;;;;2.47;0.80;;;;;;;11.16;100.00;94387.22;5003018;28;20138;-59
2021/10/21 05:04:57;;;;;;;2.58;0.77;;;;;;;11.16;100.00;94366.56;5006320;28;20292;-61
2021/10/21 05:07:24;;;;;;;0.75;0.60;;;;;;;11.18;100.00;94318.88;5008861;28;20045;-60
2021/10/21 05:09:50;;;;;;;2.53;0.70;;;;;;;11.24;100.00;94319.59;5004613;28;20163;-60
2021/10/21 05:12:18;;;;;;;4.63;0.82;;;;;;;11.23;100.00;94313.44;5013416;28;20105;-59
2021/10/21 05:14:43;;;;;;;4.05;0.93;;;;;;;11.24;100.00;94279.38;4993191;28;20037;-61
2021/10/21 05:17:08;;;;;;;1.15;0.63;;;;;;;11.26;100.00;94266.47;5029327;28;20021;-59
2021/10/21 05:19:34;;;;;;;5.20;0.82;;;;;;;11.30;100.00;94228.09;5005198;28;20588;-60
2021/10/21 05:21:59;;;;;;;2.15;0.75;;;;;;;11.24;100.00;94220.41;4975540;28;20056;-58
2021/10/21 05:24:24;;;;;;;1.55;0.70;;;;;;;11.27;100.00;94196.47;5007136;28;20038;-61
2021/10/21 05:26:50;;;;;;;1.60;0.68;;;;;;;11.25;100.00;94166.50;4947260;28;20041;-59
2021/10/21 05:29:15;;;;;;;3.22;0.73;;;;;;;11.29;100.00;94167.53;5023547;28;20477;-59
2021/10/21 05:31:40;;;;;;;1.15;0.68;;;;;;;11.34;100.00;94172.00;5031454;28;20029;-59
2021/10/21 05:34:06;;;;;;;2.75;0.77;;;;;;;11.40;100.00;94165.50;5000429;28;20116;-60
2021/10/21 05:36:31;;;;;;;2.95;0.75;;;;;;;11.41;100.00;94144.84;5001781;28;20118;-60
2021/10/21 05:38:57;;;;;;;1.33;0.50;;;;;;;11.40;100.00;94153.97;5005295;28;20443;-60
2021/10/21 05:41:23;;;;;;;2.45;0.95;;;;;;;11.44;100.00;94153.06;5007656;28;20473;-58
2021/10/21 05:43:49;;;;;;;2.22;0.93;;;;;;;11.45;100.00;94153.88;5024973;28;20033;-58
2021/10/21 05:46:14;;;;;;;2.97;0.70;;;;;;;11.43;100.00;94146.13;5027264;28;20523;-60
2021/10/21 05:48:39;;;;;;;1.73;0.52;;;;;;;11.42;100.00;94157.94;5033621;28;20108;-58
2021/10/21 05:51:05;;;;;;;1.77;0.90;;;;;;;11.43;100.00;94156.84;5021675;28;20068;-59
2021/10/21 05:53:30;;;;;;;2.90;0.80;;;;;;;11.44;100.00;94173.72;4994763;28;20275;-61
2021/10/21 05:55:55;;;;;;;2.75;0.90;;;;;;;11.48;100.00;94164.81;5014322;28;20504;-61
2021/10/21 05:58:21;;;;;;;4.28;0.95;;;;;;;11.52;100.00;94179.25;4987571;28;20034;-61
2021/10/21 06:00:46;;;;;;;2.65;0.60;;;;;;;11.53;100.00;94198.81;5013171;28;20456;-60
2021/10/21 06:03:11;;;;;;;1.88;0.80;;;;;;;11.54;100.00;94214.59;5003967;28;20038;-60
2021/10/21 06:05:37;;;;;;;2.60;0.80;;;;;;;11.56;100.00;94215.09;4957351;28;20061;-60
2021/10/21 06:08:03;;;;;;;1.90;0.80;;;;;;;11.54;100.00;94216.50;5009450;28;20034;-60
2021/10/21 06:10:28;;;;;;;4.78;0.65;;;;;;;11.52;100.00;94229.41;5015265;28;20396;-60
2021/10/21 06:12:57;;;;;;;1.13;0.80;;;;;;;11.48;100.00;94244.47;5016740;28;20036;-58
2021/10/21 06:15:23;;;;;;;1.08;0.63;;;;;;;11.48;100.00;94228.38;5013282;28;20450;-59
2021/10/21 06:17:49;;;;;;;1.92;0.90;;;;;;;11.49;100.00;94251.41;4997475;28;20089;-61
2021/10/21 06:20:15;;;;;;;2.78;1.20;;;;;;;11.48;100.00;94257.84;4974013;28;20058;-60
2021/10/21 06:22:41;;;;;;;2.67;0.80;;;;;;;11.43;100.00;94279.41;4995058;28;20026;-61
2021/10/21 06:25:10;;;;;;;2.20;0.88;;;;;;;11.55;100.00;94279.75;5003178;28;20036;-59
2021/10/21 06:27:39;;;;;;;2.75;0.90;;;;;;;11.55;100.00;94290.50;4973583;28;20018;-51
2021/10/21 06:30:06;;;;;;;3.40;0.73;;;;;;;11.57;100.00;94289.09;4998249;28;20100;-56
2021/10/21 06:32:31;;;;;;;1.48;0.50;;;;;;;11.57;100.00;94313.25;4991239;28;20052;-53
2021/10/21 06:34:57;;;;;;;3.65;0.70;;;;;;;11.56;100.00;94311.66;4972365;28;20517;-53
2021/10/21 06:37:25;;;;;;;6.88;1.15;;;;;;;11.71;100.00;94348.19;4993790;28;20045;-55
2021/10/21 06:39:56;;;;;;;4.57;1.05;;;;;;;11.67;100.00;94357.13;5008661;28;20033;-54
2021/10/21 06:42:23;;;;;;;1.85;0.50;;;;;;;11.64;100.00;94384.53;4976197;28;20122;-59
2021/10/21 06:44:49;;;;;;;5.25;1.00;;;;;;;11.66;100.00;94407.28;4975749;28;20466;-59
2021/10/21 06:47:14;;;;;;;2.95;0.80;;;;;;;11.67;100.00;94454.47;5008976;28;20034;-58
2021/10/21 06:49:40;;;;;;;3.80;1.08;;;;;;;11.73;100.00;94471.31;5008492;28;20088;-59
2021/10/21 06:52:05;;;;;;;6.38;0.82;;;;;;;11.72;100.00;94500.03;5008503;28;20081;-58
2021/10/21 06:54:37;;;;;;;4.90;0.90;;;;;;;11.71;100.00;94519.88;4991672;28;20026;-59
2021/10/21 06:57:04;;;;;;;7.95;1.20;;;;;;;11.67;100.00;94515.38;4993419;28;20034;-60
2021/10/21 06:59:29;;;;;;;4.45;0.77;;;;;;;11.67;100.00;94545.69;4999604;28;20041;-58
2021/10/21 07:01:55;;;;;;;2.80;1.17;;;;;;;11.72;100.00;94566.28;4995649;28;20030;-61
2021/10/21 07:04:21;;;;;;;5.90;1.10;;;;;;;11.79;100.00;94570.28;4994644;28;20022;-56
2021/10/21 07:06:46;;;;;;;6.22;1.45;;;;;;;11.82;100.00;94612.63;4995367;28;20104;-57
2021/10/21 07:09:15;;;;;;;5.50;1.05;;;;;;;11.80;100.00;94604.06;5012774;28;20180;-60
2021/10/21 07:11:40;;;;;;;10.38;2.03;;;;;;;11.83;100.00;94626.84;4995046;28;20030;-59
2021/10/21 07:14:08;;;;;;;6.45;1.15;;;;;;;11.93;100.00;94631.31;4994798;28;20496;-59
2021/10/21 07:16:34;;;;;;;8.45;1.27;;;;;;;12.12;100.00;94673.25;5012345;28;20025;-59
2021/10/21 07:18:59;;;;;;;5.75;1.00;;;;;;;12.34;100.00;94690.75;4989606;28;20204;-59
2021/10/21 07:21:43;;;;;;;4.88;1.08;;;;;;;12.63;100.00;94701.47;5011297;28;20033;-59
2021/10/21 07:24:09;;;;;;;3.58;1.02;;;;;;;12.82;100.00;94717.63;5012014;28;20108;-58
2021/10/21 07:26:42;;;;;;;5.20;1.20;;;;;;;12.94;100.00;94726.09;5012425;28;20157;-59
2021/10/21 07:29:07;;;;;;;7.50;1.02;;;;;;;12.83;100.00;94746.91;5012298;28;20109;-54
2021/10/21 07:31:33;;;;;;;9.55;1.35;;;;;;;12.67;100.00;94764.28;4994809;28;20157;-53
2021/10/21 07:34:05;;;;;;;6.68;1.10;;;;;;;12.54;100.00;94778.38;4994281;28;20037;-53
2021/10/21 07:36:34;;;;;;;2.58;1.00;;;;;;;12.47;100.00;94768.75;4995699;28;20022;-53
2021/10/21 07:38:59;;;;;;;6.63;1.10;;;;;;;12.44;100.00;94779.28;5012404;28;20032;-60
2021/10/21 07:41:27;;;;;;;11.98;1.27;;;;;;;12.47;100.00;94773.34;5011030;28;20041;-61
2021/10/21 07:43:53;;;;;;;4.90;1.10;;;;;;;12.50;100.00;94801.53;5011959;28;20504;-61
2021/10/21 07:46:18;;;;;;;3.20;1.23;;;;;;;12.56;100.00;94798.50;5012107;28;20034;-58
2021/10/21 07:48:49;;;;;;;4.63;0.98;;;;;;;12.68;100.00;94814.25;4994373;28;20101;-58
2021/10/21 07:51:14;;;;;;;5.25;1.00;;;;;;;12.78;100.00;94830.25;4994285;28;20060;-59
2021/10/21 07:53:40;;;;;;;7.03;1.38;;;;;;;12.80;100.00;94854.16;4991406;28;20037;-58
2021/10/21 07:56:10;;;;;;;8.85;1.33;;;;;;;13.05;100.00;94845.84;5010805;28;20484;-57
2021/10/21 07:58:36;;;;;;;5.18;1.20;;;;;;;12.99;100.00;94873.88;5004429;28;20037;-60
2021/10/21 08:01:01;;;;;;;6.40;1.10;;;;;;;12.99;100.00;94880.03;5007313;28;20030;-58
2021/10/21 08:03:27;;;;;;;8.35;1.27;;;;;;;12.96;100.00;94885.19;5003219;28;20112;-58
2021/10/21 08:05:56;;;;;;;6.72;1.00;;;;;;;13.07;100.00;94897.44;4994174;28;20030;-59
2021/10/21 08:08:27;;;;;;;7.07;1.23;;;;;;;13.05;100.00;94903.13;5011742;28;20029;-58
2021/10/21 08:10:53;;;;;;;5.63;1.25;;;;;;;13.17;100.00;94889.28;5008010;28;20077;-61
2021/10/21 08:13:20;;;;;;;7.32;1.17;;;;;;;13.32;100.00;94867.59;4984325;28;20418;-59
2021/10/21 08:15:45;;;;;;;5.95;1.13;;;;;;;13.46;100.00;94921.53;5006230;28;20037;-59
2021/10/21 08:18:14;;;;;;;5.07;1.08;;;;;;;13.68;100.00;94929.09;4994239;28;20050;-53
2021/10/21 08:20:46;;;;;;;5.38;1.25;;;;;;;13.76;100.00;94946.47;4992010;28;20484;-56
2021/10/21 08:23:11;;;;;;;3.97;1.10;;;;;;;13.79;100.00;94962.06;5008090;28;20033;-53
2021/10/21 08:25:42;;;;;;;3.25;0.90;;;;;;;13.95;100.00;94959.97;5009908;28;20034;-53
2021/10/21 08:28:08;;;;;;;6.45;1.20;;;;;;;14.06;100.00;94956.88;4991768;28;20030;-54
2021/10/21 08:30:37;;;;;;;3.42;0.90;;;;;;;14.30;100.00;94977.56;5004046;28;20026;-55
2021/10/21 08:33:03;;;;;;;4.20;0.88;;;;;;;14.23;100.00;94977.94;5010126;28;20473;-59
2021/10/21 08:35:29;;;;;;;5.97;1.30;;;;;;;14.45;100.00;94988.97;4992267;28;20022;-56
2021/10/21 08:37:58;;;;;;;6.63;1.33;;;;;;;14.94;100.00;94992.28;4969753;28;20034;-58
2021/10/21 08:40:24;;;;;;;4.72;1.08;;;;;;;14.75;100.00;95011.97;5002817;28;20134;-57
2021/10/21 08:42:49;;;;;;;8.23;1.70;;;;;;;15.07;100.00;95007.72;5001375;28;20117;-53
2021/10/21 08:45:15;;;;;;;3.45;1.20;;;;;;;14.92;100.00;95026.84;5017544;28;20026;-60
2021/10/21 08:47:45;;;;;;;3.08;0.85;;;;;;;14.89;100.00;95022.84;5005255;28;20032;-59
2021/10/21 08:50:12;;;;;;;7.78;1.25;;;;;;;14.50;100.00;95017.72;5009404;28;20022;-59
2021/10/21 08:52:38;;;;;;;5.63;1.10;;;;;;;14.25;100.00;95026.13;4996157;28;20077;-58
2021/10/21 08:55:04;;;;;;;3.63;1.00;;;;;;;14.35;100.00;95007.16;4987142;28;20026;-58
2021/10/21 08:57:30;;;;;;;4.10;1.00;;;;;;;14.55;100.00;95025.75;4997074;28;20473;-53
2021/10/21 08:59:56;;;;;;;5.88;1.20;;;;;;;14.86;100.00;95025.31;4999253;28;20044;-59
2021/10/21 09:02:25;;;;;;;3.83;1.30;;;;;;;15.33;100.00;95037.78;5006628;28;20037;-54
2021/10/21 09:05:08;;;;;;;6.65;1.17;;;;;;;15.15;100.00;95069.09;4993521;28;20041;-57
2021/10/21 09:10:19;;;;;;;3.90;0.93;;;;;;;14.90;100.00;95070.28;4991096;28;19928;-61
2021/10/21 09:12:48;;;;;;;6.03;1.27;;;;;;;14.89;100.00;95070.56;5010515;28;20034;-60
2021/10/21 09:15:18;;;;;;;2.47;1.08;;;;;;;14.94;100.00;95079.38;5016489;28;20120;-61
2021/10/21 09:17:45;;;;;;;2.85;0.90;;;;;;;15.16;100.00;95081.47;5008102;28;20037;-59
2021/10/21 09:20:40;;;;;;;6.68;1.10;;;;;;;15.57;100.00;95088.94;5009112;28;20029;-55
2021/10/21 09:23:11;;;;;;;1.67;0.63;;;;;;;15.97;100.00;95102.88;5024284;28;20394;-59
2021/10/21 09:25:37;;;;;;;3.95;1.00;;;;;;;15.92;100.00;95107.25;5026435;28;20522;-54
2021/10/21 09:28:16;;;;;;;3.58;0.90;;;;;;;15.81;100.00;95124.72;5024661;28;20033;-60
2021/10/21 09:31:09;;;;;;;3.70;0.98;;;;;;;15.91;100.00;95121.03;5014459;28;20026;-59
2021/10/21 09:33:42;;;;;;;4.57;0.90;;;;;;;16.07;100.00;95121.59;5017863;28;20036;-58
2021/10/21 09:36:08;;;;;;;3.25;1.00;;;;;;;15.84;100.00;95128.72;5001801;28;20087;-60
2021/10/21 09:38:34;;;;;;;3.15;0.88;;;;;;;15.59;100.00;95140.72;5013121;28;20037;-56
2021/10/21 09:41:17;;;;;;;3.85;1.17;;;;;;;16.05;100.00;95127.25;5027825;28;20040;-59
2021/10/21 09:43:42;;;;;;;4.40;1.00;;;;;;;16.18;100.00;95139.22;5018666;28;20374;-56
2021/10/21 09:46:41;;;;;;;2.95;0.82;;;;;;;15.96;100.00;95158.00;5017271;28;20032;-55
2021/10/21 09:49:29;;;;;;;3.97;0.80;;;;;;;16.08;100.00;95159.13;5009062;28;20052;-55
2021/10/21 09:51:55;;;;;;;4.47;0.90;;;;;;;16.16;100.00;95163.00;5011224;28;20069;-58
2021/10/21 09:54:21;;;;;;;2.63;0.65;;;;;;;16.21;100.00;95166.44;4996178;28;20452;-58
2021/10/21 09:56:56;;;;;;;3.28;0.70;;;;;;;15.82;100.00;95166.03;5010955;28;20034;-61
2021/10/21 09:59:35;;;;;;;2.33;0.68;;;;;;;15.51;100.00;95163.00;5013713;28;20053;-55
2021/10/21 10:02:15;;;;;;;2.08;0.70;;;;;;;15.17;100.00;95147.84;5012698;28;20112;-59
2021/10/21 10:04:49;;;;;;;2.65;0.60;;;;;;;14.99;100.00;95151.34;5003736;28;20425;-59
2021/10/21 10:07:14;;;;;;;7.18;1.52;;;;;;;14.87;100.00;95124.81;4995714;28;20037;-59
2021/10/21 10:09:40;;;;;;;3.03;1.10;;;;;;;14.68;100.00;95119.38;4990977;28;20030;-53
2021/10/21 10:12:07;;;;;;;4.30;1.10;;;;;;;14.80;100.00;95113.56;4986783;28;20066;-58
2021/10/21 10:14:43;;;;;;;1.80;0.70;;;;;;;14.93;100.00;95107.44;4999611;28;20034;-58
2021/10/21 10:17:09;;;;;;;1.83;0.80;;;;;;;15.42;100.00;95113.50;5000772;28;20030;-54
2021/10/21 10:19:35;;;;;;;6.00;0.95;;;;;;;16.17;100.00;95124.91;5013250;28;20052;-54
2021/10/21 10:22:05;;;;;;;3.25;1.00;;;;;;;16.63;100.00;95137.53;5033437;28;20030;-57
2021/10/21 10:24:33;;;;;;;2.38;0.80;;;;;;;16.75;100.00;95166.81;4990074;28;20021;-56
2021/10/21 10:27:03;;;;;;;6.20;1.23;;;;;;;16.85;100.00;95107.06;5009803;28;20052;-56
2021/10/21 10:29:31;;;;;;;3.50;1.15;;;;;;;16.18;100.00;94993.28;4991559;28;20029;-50
2021/10/21 10:31:59;;;;;;;2.60;0.77;;;;;;;15.77;100.00;95013.00;5016260;28;20388;-57
2021/10/21 10:34:37;;;;;;;4.15;0.80;;;;;;;15.76;100.00;95008.69;5022128;28;20365;-54
2021/10/21 10:37:17;;;;;;;2.90;1.05;;;;;;;15.49;100.00;95057.22;5026786;28;20053;-54
2021/10/21 10:39:58;;;;;;;3.67;1.08;;;;;;;15.10;100.00;95052.19;5015136;28;20420;-54
2021/10/21 10:42:30;;;;;;;6.70;1.00;;;;;;;14.55;100.00;95012.28;5007655;28;20025;-57
2021/10/21 10:44:59;;;;;;;2.40;0.87;;;;;;;13.87;100.00;94986.44;5022851;28;20040;-56
2021/10/21 10:47:49;;;;;;;3.45;0.57;;;;;;;13.66;100.00;94928.56;5033128;28;20029;-55
2021/10/21 10:50:43;;;;;;;4.32;0.70;;;;;;;13.52;100.00;94933.84;5009562;28;20408;-55
2021/10/21 10:53:08;;;;;;;1.17;0.75;;;;;;;13.78;100.00;94926.25;5032388;28;20047;-59
2021/10/21 10:55:43;;;;;;;5.15;0.90;;;;;;;14.06;100.00;94934.53;5003401;28;20476;-55
2021/10/21 10:58:29;;;;;;;2.15;0.65;;;;;;;14.68;100.00;94929.88;4998946;28;20025;-55
2021/10/21 11:00:58;;;;;;;2.33;0.68;;;;;;;15.01;100.00;94971.94;5011938;28;20128;-56
2021/10/21 11:03:34;;;;;;;2.72;0.88;;;;;;;15.31;100.00;94978.72;4987105;28;20017;-54
2021/10/21 11:06:08;;;;;;;1.67;0.60;;;;;;;15.59;100.00;94971.44;5030675;28;20068;-57
2021/10/21 11:08:51;;;;;;;3.95;0.60;;;;;;;15.85;100.00;94998.00;5015039;28;20072;-59
2021/10/21 11:11:41;;;;;;;2.92;0.90;;;;;;;16.03;100.00;94986.28;5011195;28;20040;-61
2021/10/21 11:14:08;;;;;;;3.67;0.82;;;;;;;16.37;100.00;94988.53;4995726;28;20034;-58
2021/10/21 11:16:47;;;;;;;3.05;0.90;;;;;;;16.36;100.00;94999.66;5000785;28;20072;-58
2021/10/21 11:19:43;;;;;;;13.82;1.20;;;;;;;16.21;100.00;95025.09;5016521;28;20523;-59
2021/10/21 11:22:31;;;;;;;1.17;0.63;;;;;;;15.77;100.00;95026.50;5008807;28;20076;-59
2021/10/21 11:25:02;;;;;;;1.83;0.70;;;;;;;15.86;100.00;95032.00;5013151;28;20042;-61
2021/10/21 11:27:36;;;;;;;1.90;0.82;;;;;;;15.85;100.00;95039.31;4988220;28;20125;-57
2021/10/21 11:30:09;;;;;;;3.17;1.00;;;;;;;16.02;100.00;95025.22;5009179;28;20442;-55
2021/10/21 11:32:38;;;;;;;4.78;1.15;;;;;;;16.06;100.00;95042.41;4995596;28;20030;-57
2021/10/21 11:35:14;;;;;;;1.45;0.68;;;;;;;16.55;100.00;95000.31;4982507;28;20495;-59